createdAt,value
2018-11-01T12:50:58.814Z,6.83
2018-11-01T12:53:27.350Z,5.47
2018-11-01T12:55:55.607Z,4.77
2018-11-01T12:58:23.797Z,5.00
2018-11-01T13:00:52.045Z,4.90
2018-11-01T13:03:20.278Z,4.57
2018-11-01T13:05:48.495Z,5.23
2018-11-01T13:08:16.909Z,4.43
2018-11-01T13:10:45.149Z,4.40
2018-11-01T13:13:13.301Z,4.53
2018-11-01T13:15:41.962Z,3.90
2018-11-01T13:18:10.370Z,4.30
2018-11-01T13:20:38.370Z,4.47
2018-11-01T13:23:06.582Z,4.77
2018-11-01T13:25:34.734Z,5.07
2018-11-01T13:28:02.986Z,4.57
2018-11-01T13:30:31.223Z,5.10
2018-11-01T13:32:59.392Z,4.63
2018-11-01T13:35:27.579Z,5.00
2018-11-01T13:37:55.745Z,5.37
2018-11-01T13:40:24.216Z,4.80
2018-11-01T13:42:52.093Z,5.40
2018-11-01T13:45:20.607Z,5.70
2018-11-01T13:47:48.902Z,5.40
2018-11-01T13:50:17.025Z,4.60
2018-11-01T13:52:45.186Z,5.77
2018-11-01T13:55:13.749Z,6.30
2018-11-01T13:57:41.942Z,6.47
2018-11-01T14:00:11.303Z,5.97
2018-11-01T14:02:42.074Z,5.80
2018-11-01T14:05:13.305Z,5.47
2018-11-01T14:07:42.221Z,5.80
2018-11-01T14:10:11.724Z,5.87
2018-11-01T14:12:39.869Z,6.70
2018-11-01T14:15:09.090Z,5.63
2018-11-01T14:17:36.867Z,6.83
2018-11-01T14:20:06.277Z,7.20
2018-11-01T14:22:34.437Z,6.00
2018-11-01T14:25:02.599Z,7.37
2018-11-01T14:27:31.228Z,7.50
2018-11-01T14:29:59.399Z,7.67
2018-11-01T14:32:27.580Z,7.63
2018-11-01T14:34:55.734Z,8.20
2018-11-01T14:37:23.900Z,8.70
2018-11-01T14:39:52.086Z,9.10
2018-11-01T14:42:20.244Z,9.40
2018-11-01T14:44:48.443Z,9.23
2018-11-01T14:47:16.684Z,9.13
2018-11-01T14:49:44.889Z,9.73
2018-11-01T14:52:13.334Z,8.63
2018-11-01T14:54:42.067Z,10.13
2018-11-01T14:57:10.265Z,10.07
2018-11-01T14:59:38.997Z,10.83
2018-11-01T15:02:05.856Z,9.93
2018-11-01T15:04:34.017Z,10.50
2018-11-01T15:07:02.187Z,10.80
2018-11-01T15:09:30.343Z,11.27
2018-11-01T15:11:58.526Z,10.97
2018-11-01T15:14:26.675Z,11.13
2018-11-01T15:16:54.897Z,10.40
2018-11-01T15:19:23.170Z,11.10
2018-11-01T15:21:51.241Z,12.67
2018-11-01T15:24:19.463Z,12.10
2018-11-01T15:26:47.637Z,12.60
2018-11-01T15:29:15.805Z,12.73
2018-11-01T15:31:43.978Z,11.90
2018-11-01T15:34:12.200Z,12.47
2018-11-01T15:36:40.287Z,13.13
2018-11-01T15:39:09.601Z,12.57
2018-11-01T15:41:37.881Z,13.17
2018-11-01T15:44:06.705Z,12.87
2018-11-01T15:46:41.409Z,12.40
2018-11-01T15:49:09.640Z,13.10
2018-11-01T15:51:37.792Z,13.83
2018-11-01T15:54:06.000Z,11.70
2018-11-01T15:56:34.833Z,12.40
2018-11-01T15:59:03.067Z,11.80
2018-11-01T16:01:31.192Z,13.93
2018-11-01T16:03:59.408Z,15.33
2018-11-01T16:06:27.593Z,13.67
2018-11-01T16:08:56.329Z,13.07
2018-11-01T16:11:24.519Z,13.37
2018-11-01T16:13:52.715Z,14.60
2018-11-01T16:16:20.906Z,14.10
2018-11-01T16:18:49.100Z,13.33
2018-11-01T16:21:17.300Z,14.37
2018-11-01T16:23:45.449Z,13.97
2018-11-01T16:26:13.917Z,13.17
2018-11-01T16:28:42.057Z,13.20
2018-11-01T16:31:10.242Z,14.00
2018-11-01T16:33:38.445Z,12.90
2018-11-01T16:36:06.676Z,12.70
2018-11-01T16:38:34.844Z,12.97
2018-11-01T16:41:03.025Z,11.50
2018-11-01T16:43:32.121Z,10.33
2018-11-01T16:46:00.317Z,11.07
2018-11-01T16:48:28.495Z,12.17
2018-11-01T16:50:56.688Z,10.43
2018-11-01T16:53:24.850Z,11.20
2018-11-01T16:55:53.446Z,10.20
2018-11-01T16:58:21.577Z,10.10
2018-11-01T17:00:49.758Z,10.20
2018-11-01T17:03:17.972Z,9.77
2018-11-01T17:05:46.169Z,8.80
2018-11-01T17:08:14.393Z,8.87
2018-11-01T17:10:42.573Z,8.77
2018-11-01T17:13:10.881Z,8.60
2018-11-01T17:15:39.922Z,7.10
2018-11-01T17:18:08.152Z,8.00
2018-11-01T17:20:36.329Z,6.70
2018-11-01T17:23:04.545Z,7.83
2018-11-01T17:25:32.692Z,6.80
2018-11-01T17:28:00.888Z,7.40
2018-11-01T17:30:29.062Z,8.73
2018-11-01T17:32:57.342Z,7.83
2018-11-01T17:35:25.535Z,8.83
2018-11-01T17:37:53.722Z,7.17
2018-11-01T17:40:21.913Z,8.00
2018-11-01T17:42:50.105Z,7.93
2018-11-01T17:45:18.761Z,8.03
2018-11-01T17:47:47.017Z,8.00
2018-11-01T17:50:16.826Z,8.37
2018-11-01T17:52:45.121Z,8.63
2018-11-01T17:55:13.701Z,8.60
2018-11-01T17:57:42.318Z,8.07
2018-11-01T18:00:11.816Z,9.30
2018-11-01T18:02:40.661Z,9.03
2018-11-01T18:05:09.652Z,8.87
2018-11-01T18:07:38.452Z,11.90
2018-11-01T18:10:07.749Z,8.50
2018-11-01T18:12:35.970Z,8.63
2018-11-01T18:15:04.592Z,7.90
2018-11-01T18:17:32.773Z,8.23
2018-11-01T18:20:01.062Z,8.90
2018-11-01T18:22:29.248Z,7.23
2018-11-01T18:24:57.486Z,7.80
2018-11-01T18:27:25.837Z,7.57
2018-11-01T18:29:54.038Z,8.50
2018-11-01T18:32:22.251Z,7.93
2018-11-01T18:34:50.464Z,8.90
2018-11-01T18:37:18.663Z,6.97
2018-11-01T18:39:46.914Z,6.73
2018-11-01T18:42:15.345Z,7.90
2018-11-01T18:44:43.581Z,8.30
2018-11-01T18:47:11.794Z,8.27
2018-11-01T18:49:40.029Z,8.13
2018-11-01T18:52:08.222Z,8.00
2018-11-01T18:54:36.552Z,7.23
2018-11-01T18:57:05.961Z,7.63
2018-11-01T18:59:34.183Z,6.50
2018-11-01T19:02:02.350Z,6.23
2018-11-01T19:04:30.533Z,6.73
2018-11-01T19:06:58.901Z,6.90
2018-11-01T19:09:27.151Z,6.20
2018-11-01T19:12:02.021Z,6.30
2018-11-01T19:14:30.343Z,6.63
2018-11-01T19:16:58.473Z,5.67
2018-11-01T19:19:26.719Z,6.73
2018-11-01T19:21:55.123Z,6.43
2018-11-01T19:24:23.099Z,6.63
2018-11-01T19:26:51.305Z,5.83
2018-11-01T19:32:01.704Z,7.03
2018-11-01T19:34:30.219Z,5.83
2018-11-01T19:36:58.692Z,7.20
2018-11-01T19:39:35.227Z,7.07
2018-11-01T19:42:19.545Z,7.33
2018-11-01T19:44:51.622Z,6.63
2018-11-01T19:47:19.977Z,8.03
2018-11-01T19:52:42.166Z,8.57
2018-11-01T20:00:30.522Z,9.47
2018-11-01T20:03:05.700Z,8.17
2018-11-01T20:05:33.929Z,7.97
2018-11-01T20:08:02.145Z,7.67
2018-11-01T20:10:30.301Z,9.10
2018-11-01T20:12:58.567Z,8.20
2018-11-01T20:15:26.785Z,10.77
2018-11-01T20:17:55.030Z,8.97
2018-11-01T20:20:23.248Z,9.13
2018-11-01T20:22:51.497Z,9.03
2018-11-01T20:25:19.914Z,9.67
2018-11-01T20:27:48.220Z,8.50
2018-11-01T20:30:16.864Z,9.03
2018-11-01T20:32:45.490Z,9.77
2018-11-01T20:35:14.989Z,10.50
2018-11-01T20:37:43.539Z,9.97
2018-11-01T20:40:11.886Z,9.40
2018-11-01T20:42:40.919Z,10.43
2018-11-01T20:45:10.390Z,10.83
2018-11-01T20:47:40.401Z,11.43
2018-11-01T20:50:09.685Z,11.07
2018-11-01T20:52:37.940Z,10.63
2018-11-01T20:55:06.346Z,11.97
2018-11-01T20:57:34.657Z,11.93
2018-11-01T21:00:02.857Z,12.73
2018-11-01T21:02:31.092Z,12.00
2018-11-01T21:04:59.320Z,11.33
2018-11-01T21:07:27.432Z,10.90
2018-11-01T21:09:55.648Z,11.40
2018-11-01T21:12:23.920Z,10.20
2018-11-01T21:14:52.140Z,11.80
2018-11-01T21:17:20.323Z,9.13
2018-11-01T21:19:48.582Z,8.50
2018-11-01T21:22:16.818Z,8.90
2018-11-01T21:24:45.046Z,9.37
2018-11-01T21:27:13.285Z,9.43
2018-11-01T21:29:41.550Z,8.77
2018-11-01T21:32:09.956Z,8.37
2018-11-01T21:34:38.892Z,7.53
2018-11-01T21:37:07.872Z,8.30
2018-11-01T21:39:36.093Z,8.30
2018-11-01T21:42:04.594Z,9.70
2018-11-01T21:44:32.869Z,9.03
2018-11-01T21:47:01.548Z,8.60
2018-11-01T21:49:29.838Z,9.30
2018-11-01T21:51:58.014Z,9.23
2018-11-01T21:54:26.237Z,9.27
2018-11-01T21:56:54.450Z,10.03
2018-11-01T21:59:22.758Z,8.10
2018-11-01T22:01:50.996Z,9.50
2018-11-01T22:04:19.210Z,9.10
2018-11-01T22:06:47.527Z,9.10
2018-11-01T22:09:16.652Z,9.40
2018-11-01T22:11:45.206Z,9.20
2018-11-01T22:14:13.646Z,9.53
2018-11-01T22:16:42.595Z,10.97
2018-11-01T22:19:11.834Z,9.93
2018-11-01T22:21:41.051Z,9.50
2018-11-01T22:24:09.365Z,9.80
2018-11-01T22:26:38.988Z,9.50
2018-11-01T22:29:07.994Z,9.80
2018-11-01T22:31:36.392Z,9.77
2018-11-01T22:34:04.918Z,9.80
2018-11-01T22:36:33.093Z,9.97
2018-11-01T22:39:01.259Z,10.50
2018-11-01T22:41:29.459Z,11.10
2018-11-01T22:43:57.656Z,10.50
2018-11-01T22:46:25.856Z,11.03
2018-11-01T22:48:54.094Z,11.40
2018-11-01T22:51:22.371Z,9.60
2018-11-01T22:53:50.587Z,9.80
2018-11-01T22:56:18.780Z,10.17
2018-11-01T22:58:46.965Z,9.03
